createdAt,value
2023-03-04T00:00:00.352Z,98008.22
2023-03-04T00:02:29.761Z,98008.22
2023-03-04T00:04:58.313Z,98018.03
2023-03-04T00:07:27.059Z,98016.97
2023-03-04T00:09:55.982Z,98023.69
2023-03-04T00:12:24.676Z,98032.47
2023-03-04T00:14:53.285Z,98020.22
2023-03-04T00:17:23.955Z,97996.81
2023-03-04T00:19:52.365Z,98012.34
2023-03-04T00:22:21.052Z,98028.03
2023-03-04T00:24:50.256Z,98017.59
2023-03-04T00:27:19.256Z,98000.06
2023-03-04T00:29:48.594Z,98026.81
2023-03-04T00:32:19.440Z,98007.47
2023-03-04T00:34:50.019Z,98016.25
2023-03-04T00:37:20.178Z,98010.34
2023-03-04T00:39:49.153Z,98019.50
2023-03-04T00:42:18.050Z,98011.41
2023-03-04T00:44:47.272Z,98026.81
2023-03-04T00:47:15.828Z,97999.09
2023-03-04T07:03:47.977Z,97990.47
2023-03-04T07:24:18.287Z,97993.50
2023-03-04T07:26:48.300Z,97992.28
2023-03-04T15:35:27.678Z,97754.94
2023-03-04T15:37:58.174Z,97739.59
2023-03-04T15:40:33.366Z,97747.91
2023-03-04T15:45:40.701Z,97755.72
2023-03-04T15:48:12.780Z,97741.50
2023-03-04T15:55:54.936Z,97711.38
2023-03-04T15:58:23.847Z,97748.22
2023-03-04T16:00:54.449Z,97747.16
2023-03-04T16:03:23.846Z,97753.59
2023-03-04T16:05:53.482Z,97765.97
2023-03-04T16:11:04.984Z,97754.16
2023-03-04T16:13:34.174Z,97764.91
2023-03-04T16:16:02.910Z,97753.34
2023-03-04T16:18:31.843Z,97753.63
2023-03-04T16:21:01.451Z,97749.56
2023-03-04T16:23:30.063Z,97746.31
2023-03-04T16:25:59.045Z,97750.34
2023-03-04T16:28:28.707Z,97751.19
2023-03-04T16:30:56.825Z,97748.22
2023-03-04T16:33:25.504Z,97731.00
2023-03-04T16:35:53.784Z,97740.16
2023-03-04T16:38:26.046Z,97733.97
2023-03-04T16:40:54.557Z,97734.50
2023-03-04T16:43:23.656Z,97732.34
2023-03-04T16:45:53.780Z,97726.16
2023-03-04T16:48:22.472Z,97747.69
2023-03-04T16:50:51.437Z,97726.19
2023-03-04T16:53:28.912Z,97733.97
2023-03-04T16:55:59.253Z,97734.22
2023-03-04T16:58:27.702Z,97747.97
2023-03-04T17:00:58.039Z,97723.75
2023-03-04T17:03:26.305Z,97715.13
2023-03-04T17:05:54.707Z,97708.66
2023-03-04T17:08:23.680Z,97700.63
2023-03-04T17:10:52.796Z,97732.09
2023-03-04T17:13:21.425Z,97728.81
2023-03-04T17:15:50.568Z,97739.63
2023-03-04T17:18:20.327Z,97740.94
2023-03-04T17:20:48.712Z,97738.50
2023-03-04T17:23:17.851Z,97735.84
2023-03-04T17:25:46.447Z,97737.47
2023-03-04T17:28:15.137Z,97750.34
2023-03-04T17:30:44.178Z,97739.59
2023-03-04T17:33:12.802Z,97748.97
2023-03-04T17:35:42.363Z,97743.13
2023-03-04T17:38:11.336Z,97756.00
2023-03-04T17:40:39.744Z,97745.25
2023-03-04T17:43:12.040Z,97752.50
2023-03-04T17:45:41.034Z,97695.91
2023-03-04T17:48:15.418Z,97742.00
2023-03-04T17:50:51.399Z,97740.13
2023-03-04T17:53:21.038Z,97752.13
2023-03-04T17:55:53.297Z,97735.25
2023-03-04T17:58:22.614Z,97717.97
2023-03-04T18:00:53.008Z,97740.34
2023-03-04T18:03:22.448Z,97730.88
2023-03-04T18:05:52.312Z,97757.31
2023-03-04T18:08:23.559Z,97729.28
2023-03-04T18:10:52.884Z,97751.19
2023-03-04T18:13:21.785Z,97727.56
2023-03-04T18:15:50.347Z,97733.50
2023-03-04T18:18:19.258Z,97728.94
2023-03-04T18:20:48.174Z,97752.00
2023-03-04T18:23:18.080Z,97714.84
2023-03-04T18:25:46.946Z,97720.03
2023-03-04T18:28:16.148Z,97727.84
2023-03-04T18:30:45.098Z,97721.56
2023-03-04T18:33:14.628Z,97721.81
2023-03-04T18:35:43.119Z,97710.56
2023-03-04T18:38:11.895Z,97720.03
2023-03-04T18:40:43.521Z,97715.34
2023-03-04T18:43:11.896Z,97716.38
2023-03-04T18:45:41.508Z,97705.75
2023-03-04T18:48:10.564Z,97717.63
2023-03-04T18:50:39.529Z,97707.56
2023-03-04T18:53:09.000Z,97721.53
2023-03-04T18:55:38.346Z,97692.28
2023-03-04T18:58:08.285Z,97699.63
2023-03-04T19:00:36.965Z,97707.13
2023-03-04T19:03:09.831Z,97704.69
2023-03-04T19:05:38.333Z,97699.25
2023-03-04T19:08:07.001Z,97701.94
2023-03-04T19:10:35.813Z,97694.16
2023-03-04T19:13:04.550Z,97703.09
2023-03-04T19:15:34.388Z,97667.94
2023-03-04T19:18:03.596Z,97682.94
2023-03-04T19:20:31.827Z,97705.81
2023-03-04T19:23:00.111Z,97724.34
2023-03-04T19:25:28.801Z,97690.44
2023-03-04T19:27:57.211Z,97701.19
2023-03-04T19:30:25.706Z,97705.78
2023-03-04T19:32:56.748Z,97676.19
2023-03-04T19:35:25.007Z,97707.94
2023-03-04T19:37:53.406Z,97704.69
2023-03-04T19:40:22.995Z,97705.84
2023-03-04T19:42:52.390Z,97709.91
2023-03-04T19:45:21.269Z,97716.31
2023-03-04T19:47:50.149Z,97711.78
2023-03-04T19:50:20.578Z,97694.28
2023-03-04T19:52:49.074Z,97718.16
2023-03-04T19:55:18.195Z,97712.03
2023-03-04T19:57:46.839Z,97699.56
2023-03-04T20:00:16.119Z,97698.16
2023-03-04T20:02:46.532Z,97713.09
2023-03-04T20:05:15.955Z,97711.22
2023-03-04T20:07:46.072Z,97716.00
2023-03-04T20:10:16.984Z,97706.91
2023-03-04T20:12:45.132Z,97721.69
2023-03-04T20:15:13.992Z,97713.38
2023-03-04T20:17:42.739Z,97715.28
2023-03-04T20:20:12.665Z,97705.63
2023-03-04T20:22:41.325Z,97713.69
2023-03-04T20:25:12.272Z,97712.63
2023-03-04T20:27:41.157Z,97706.19
2023-03-04T20:30:10.967Z,97719.31
2023-03-04T20:32:40.098Z,97708.91
2023-03-04T20:35:14.362Z,97711.81
2023-03-04T20:37:43.546Z,97713.91
2023-03-04T20:40:15.228Z,97708.88
2023-03-04T20:42:43.882Z,97699.16
2023-03-04T20:45:13.084Z,97720.88
2023-03-04T20:47:41.649Z,97707.22
2023-03-04T20:50:11.307Z,97709.66
2023-03-04T20:52:39.387Z,97710.13
2023-03-04T20:55:08.506Z,97717.66
2023-03-04T20:57:40.046Z,97708.97
2023-03-04T21:00:10.142Z,97713.91
2023-03-04T21:02:38.752Z,97705.81
2023-03-04T21:05:07.827Z,97693.75
2023-03-04T21:07:36.055Z,97667.66
2023-03-04T21:10:05.798Z,97710.25
2023-03-04T21:12:34.199Z,97704.09
2023-03-04T21:15:03.840Z,97689.50
2023-03-04T21:17:32.207Z,97714.50
2023-03-04T21:20:00.442Z,97699.63
2023-03-04T21:22:28.897Z,97711.47
2023-03-04T21:24:57.207Z,97695.63
2023-03-04T21:27:25.742Z,97696.38
2023-03-04T21:29:54.202Z,97701.25
2023-03-04T21:32:26.566Z,97691.31
2023-03-04T21:34:56.946Z,97691.19
2023-03-04T21:37:26.425Z,97697.66
2023-03-04T21:39:55.154Z,97708.53
2023-03-04T21:42:23.727Z,97694.72
2023-03-04T21:44:52.146Z,97702.38
2023-03-04T21:47:21.170Z,97691.31
2023-03-04T21:49:50.688Z,97706.34
2023-03-04T21:52:19.854Z,97709.81
2023-03-04T21:54:49.173Z,97692.88
2023-03-04T21:57:17.762Z,97703.59
2023-03-04T21:59:46.067Z,97689.88
2023-03-04T22:02:17.237Z,97692.53
2023-03-04T22:04:45.466Z,97698.75
2023-03-04T22:07:15.097Z,97687.75
2023-03-04T22:09:43.807Z,97684.56
2023-03-04T22:12:12.101Z,97692.38
2023-03-04T22:14:40.440Z,97691.22
2023-03-04T22:17:09.162Z,97693.06
2023-03-04T22:19:37.597Z,97695.47
2023-03-04T22:22:06.476Z,97680.19
2023-03-04T22:24:36.613Z,97688.78
2023-03-04T22:27:04.868Z,97685.88
2023-03-04T22:29:32.825Z,97687.47
2023-03-04T22:32:01.712Z,97679.97
2023-03-04T22:34:29.933Z,97672.16
2023-03-04T22:36:58.290Z,97687.47
2023-03-04T22:39:26.774Z,97689.66
2023-03-04T22:41:56.437Z,97676.81
2023-03-04T22:44:24.647Z,97686.22
2023-03-04T22:46:53.326Z,97672.78
2023-03-04T22:49:21.391Z,97684.66
2023-03-04T22:51:49.678Z,97644.84
2023-03-04T22:54:20.206Z,97681.94
2023-03-04T22:56:48.263Z,97676.81
2023-03-04T22:59:18.156Z,97655.03
2023-03-04T23:01:46.776Z,97676.00
2023-03-04T23:04:14.742Z,97668.25
2023-03-04T23:06:42.998Z,97668.44
2023-03-04T23:09:11.820Z,97656.69
2023-03-04T23:11:40.015Z,97674.66
2023-03-04T23:14:12.103Z,97664.25
2023-03-04T23:16:44.173Z,97665.28
2023-03-04T23:19:14.942Z,97673.81
2023-03-04T23:21:44.646Z,97661.16
2023-03-04T23:24:14.343Z,97662.50
2023-03-04T23:26:44.404Z,97656.06
2023-03-04T23:29:16.490Z,97641.53
2023-03-04T23:31:46.359Z,97651.00
2023-03-04T23:34:14.743Z,97651.81
2023-03-04T23:36:43.739Z,97651.31
2023-03-04T23:39:14.510Z,97643.47
2023-03-04T23:41:43.159Z,97647.28
2023-03-04T23:44:13.290Z,97660.72
2023-03-04T23:46:41.535Z,97642.19
2023-03-04T23:49:14.650Z,97642.94
2023-03-04T23:51:44.399Z,97646.50
2023-03-04T23:54:12.853Z,97626.56
2023-03-04T23:56:41.181Z,97634.94
2023-03-04T23:59:09.286Z,97644.06
